sensor_id;sensor_type;location;lat;lon;timestamp;P1;durP1;ratioP1;P2;durP2;ratioP2
4122;SDS011;2075;51.062;6.920;2023-05-14T00:02:36;33.87;;;22.67;;
4122;SDS011;2075;51.062;6.920;2023-05-14T00:05:22;35.20;;;21.67;;
4122;SDS011;2075;51.062;6.920;2023-05-14T00:08:08;31.03;;;21.70;;
4122;SDS011;2075;51.062;6.920;2023-05-14T00:10:54;30.00;;;20.53;;
4122;SDS011;2075;51.062;6.920;2023-05-14T00:13:39;28.07;;;21.10;;
4122;SDS011;2075;51.062;6.920;2023-05-14T00:16:25;26.80;;;20.37;;
4122;SDS011;2075;51.062;6.920;2023-05-14T00:19:10;27.10;;;20.53;;
4122;SDS011;2075;51.062;6.920;2023-05-14T00:21:55;28.60;;;21.27;;
4122;SDS011;2075;51.062;6.920;2023-05-14T00:24:42;24.20;;;20.40;;
4122;SDS011;2075;51.062;6.920;2023-05-14T00:27:28;27.53;;;19.90;;
4122;SDS011;2075;51.062;6.920;2023-05-14T00:30:13;37.33;;;19.30;;
4122;SDS011;2075;51.062;6.920;2023-05-14T00:32:59;26.17;;;19.27;;
4122;SDS011;2075;51.062;6.920;2023-05-14T00:35:44;26.40;;;19.80;;
4122;SDS011;2075;51.062;6.920;2023-05-14T00:38:30;22.80;;;18.60;;
4122;SDS011;2075;51.062;6.920;2023-05-14T00:41:17;25.47;;;18.90;;
4122;SDS011;2075;51.062;6.920;2023-05-14T00:44:02;26.70;;;18.53;;
4122;SDS011;2075;51.062;6.920;2023-05-14T00:46:48;24.20;;;18.57;;
4122;SDS011;2075;51.062;6.920;2023-05-14T00:49:33;27.10;;;19.23;;
4122;SDS011;2075;51.062;6.920;2023-05-14T00:52:19;31.23;;;18.30;;
4122;SDS011;2075;51.062;6.920;2023-05-14T00:55:05;23.90;;;19.40;;
4122;SDS011;2075;51.062;6.920;2023-05-14T00:57:52;25.53;;;18.37;;
4122;SDS011;2075;51.062;6.920;2023-05-14T01:00:40;26.60;;;18.17;;
4122;SDS011;2075;51.062;6.920;2023-05-14T01:03:26;24.20;;;18.33;;
4122;SDS011;2075;51.062;6.920;2023-05-14T01:06:14;24.60;;;18.30;;
4122;SDS011;2075;51.062;6.920;2023-05-14T01:09:12;27.17;;;18.03;;
4122;SDS011;2075;51.062;6.920;2023-05-14T01:12:04;26.10;;;19.23;;
4122;SDS011;2075;51.062;6.920;2023-05-14T01:14:58;23.27;;;18.20;;
4122;SDS011;2075;51.062;6.920;2023-05-14T01:17:51;25.83;;;18.33;;
4122;SDS011;2075;51.062;6.920;2023-05-14T01:20:38;25.80;;;19.27;;
4122;SDS011;2075;51.062;6.920;2023-05-14T01:23:26;24.80;;;17.97;;
4122;SDS011;2075;51.062;6.920;2023-05-14T01:26:11;21.90;;;17.40;;
4122;SDS011;2075;51.062;6.920;2023-05-14T01:28:59;22.50;;;17.93;;
4122;SDS011;2075;51.062;6.920;2023-05-14T01:31:47;29.57;;;17.87;;
4122;SDS011;2075;51.062;6.920;2023-05-14T01:34:35;28.27;;;18.03;;
4122;SDS011;2075;51.062;6.920;2023-05-14T01:37:22;22.90;;;17.90;;
4122;SDS011;2075;51.062;6.920;2023-05-14T01:40:11;24.27;;;18.63;;
4122;SDS011;2075;51.062;6.920;2023-05-14T01:42:58;24.73;;;17.70;;
4122;SDS011;2075;51.062;6.920;2023-05-14T01:45:44;25.77;;;18.63;;
4122;SDS011;2075;51.062;6.920;2023-05-14T01:48:29;27.27;;;18.03;;
4122;SDS011;2075;51.062;6.920;2023-05-14T01:51:15;22.63;;;17.87;;
4122;SDS011;2075;51.062;6.920;2023-05-14T01:54:00;24.53;;;18.93;;
4122;SDS011;2075;51.062;6.920;2023-05-14T01:56:47;27.37;;;19.13;;
4122;SDS011;2075;51.062;6.920;2023-05-14T01:59:33;25.10;;;19.60;;
4122;SDS011;2075;51.062;6.920;2023-05-14T02:02:18;24.50;;;18.77;;
4122;SDS011;2075;51.062;6.920;2023-05-14T02:05:04;32.00;;;20.90;;
4122;SDS011;2075;51.062;6.920;2023-05-14T02:07:50;29.63;;;20.03;;
4122;SDS011;2075;51.062;6.920;2023-05-14T02:10:35;33.60;;;20.47;;
4122;SDS011;2075;51.062;6.920;2023-05-14T02:13:22;26.63;;;19.57;;
4122;SDS011;2075;51.062;6.920;2023-05-14T02:16:08;26.93;;;19.30;;
4122;SDS011;2075;51.062;6.920;2023-05-14T02:18:54;25.93;;;18.60;;
4122;SDS011;2075;51.062;6.920;2023-05-14T02:21:39;24.63;;;17.23;;
4122;SDS011;2075;51.062;6.920;2023-05-14T02:24:24;25.00;;;18.80;;
4122;SDS011;2075;51.062;6.920;2023-05-14T02:27:10;24.80;;;18.00;;
4122;SDS011;2075;51.062;6.920;2023-05-14T02:29:57;24.00;;;17.90;;
4122;SDS011;2075;51.062;6.920;2023-05-14T02:32:43;23.20;;;16.07;;
4122;SDS011;2075;51.062;6.920;2023-05-14T02:35:29;26.23;;;16.93;;
4122;SDS011;2075;51.062;6.920;2023-05-14T02:38:14;20.30;;;15.60;;
4122;SDS011;2075;51.062;6.920;2023-05-14T02:40:59;19.40;;;15.53;;
4122;SDS011;2075;51.062;6.920;2023-05-14T02:43:45;21.60;;;16.77;;
4122;SDS011;2075;51.062;6.920;2023-05-14T02:46:32;19.27;;;15.63;;
4122;SDS011;2075;51.062;6.920;2023-05-14T02:49:19;23.37;;;15.90;;
4122;SDS011;2075;51.062;6.920;2023-05-14T02:52:04;19.77;;;14.73;;
4122;SDS011;2075;51.062;6.920;2023-05-14T02:54:49;18.77;;;14.80;;
4122;SDS011;2075;51.062;6.920;2023-05-14T02:57:35;21.37;;;14.80;;
4122;SDS011;2075;51.062;6.920;2023-05-14T03:00:20;21.60;;;14.90;;
4122;SDS011;2075;51.062;6.920;2023-05-14T03:03:07;20.90;;;13.97;;
4122;SDS011;2075;51.062;6.920;2023-05-14T03:05:52;18.60;;;13.70;;
4122;SDS011;2075;51.062;6.920;2023-05-14T03:08:38;18.07;;;13.93;;
4122;SDS011;2075;51.062;6.920;2023-05-14T03:11:24;22.80;;;14.07;;
4122;SDS011;2075;51.062;6.920;2023-05-14T03:14:10;20.50;;;15.60;;
4122;SDS011;2075;51.062;6.920;2023-05-14T03:16:55;18.10;;;14.17;;
4122;SDS011;2075;51.062;6.920;2023-05-14T03:19:42;22.50;;;14.43;;
4122;SDS011;2075;51.062;6.920;2023-05-14T03:22:27;18.57;;;13.20;;
4122;SDS011;2075;51.062;6.920;2023-05-14T03:25:13;17.33;;;13.80;;
4122;SDS011;2075;51.062;6.920;2023-05-14T03:27:58;26.43;;;14.60;;
4122;SDS011;2075;51.062;6.920;2023-05-14T03:30:43;21.73;;;13.90;;
4122;SDS011;2075;51.062;6.920;2023-05-14T03:33:29;18.67;;;13.83;;
4122;SDS011;2075;51.062;6.920;2023-05-14T03:36:15;19.50;;;14.73;;
4122;SDS011;2075;51.062;6.920;2023-05-14T03:39:01;16.40;;;13.03;;
4122;SDS011;2075;51.062;6.920;2023-05-14T03:41:46;15.13;;;13.17;;
4122;SDS011;2075;51.062;6.920;2023-05-14T03:44:32;16.60;;;12.93;;
4122;SDS011;2075;51.062;6.920;2023-05-14T03:47:17;18.40;;;14.20;;
4122;SDS011;2075;51.062;6.920;2023-05-14T03:50:03;19.83;;;13.27;;
4122;SDS011;2075;51.062;6.920;2023-05-14T03:52:50;23.77;;;14.70;;
4122;SDS011;2075;51.062;6.920;2023-05-14T03:55:36;22.67;;;14.20;;
4122;SDS011;2075;51.062;6.920;2023-05-14T03:58:21;19.97;;;14.17;;
4122;SDS011;2075;51.062;6.920;2023-05-14T04:01:07;31.97;;;13.80;;
4122;SDS011;2075;51.062;6.920;2023-05-14T04:03:52;24.30;;;14.30;;
4122;SDS011;2075;51.062;6.920;2023-05-14T04:06:37;15.67;;;13.03;;
4122;SDS011;2075;51.062;6.920;2023-05-14T04:09:24;18.90;;;13.73;;
4122;SDS011;2075;51.062;6.920;2023-05-14T04:12:09;25.00;;;15.53;;
4122;SDS011;2075;51.062;6.920;2023-05-14T04:14:55;16.70;;;14.40;;
4122;SDS011;2075;51.062;6.920;2023-05-14T04:17:41;19.57;;;13.90;;
4122;SDS011;2075;51.062;6.920;2023-05-14T04:20:27;21.37;;;13.53;;
4122;SDS011;2075;51.062;6.920;2023-05-14T04:23:12;18.70;;;13.20;;
4122;SDS011;2075;51.062;6.920;2023-05-14T04:25:59;20.57;;;14.00;;
4122;SDS011;2075;51.062;6.920;2023-05-14T04:28:44;19.10;;;13.93;;
4122;SDS011;2075;51.062;6.920;2023-05-14T04:31:29;20.73;;;13.37;;
4122;SDS011;2075;51.062;6.920;2023-05-14T04:34:15;16.87;;;13.43;;
4122;SDS011;2075;51.062;6.920;2023-05-14T04:37:00;18.30;;;12.50;;
4122;SDS011;2075;51.062;6.920;2023-05-14T04:39:46;15.17;;;12.10;;
4122;SDS011;2075;51.062;6.920;2023-05-14T04:42:33;17.13;;;13.47;;
4122;SDS011;2075;51.062;6.920;2023-05-14T04:45:19;16.00;;;12.53;;
4122;SDS011;2075;51.062;6.920;2023-05-14T04:48:04;19.33;;;13.73;;
4122;SDS011;2075;51.062;6.920;2023-05-14T04:50:50;15.27;;;12.67;;
4122;SDS011;2075;51.062;6.920;2023-05-14T04:53:36;13.90;;;12.40;;
4122;SDS011;2075;51.062;6.920;2023-05-14T04:56:21;15.60;;;12.50;;
4122;SDS011;2075;51.062;6.920;2023-05-14T04:59:08;14.40;;;11.20;;
4122;SDS011;2075;51.062;6.920;2023-05-14T05:01:53;14.47;;;11.37;;
4122;SDS011;2075;51.062;6.920;2023-05-14T05:04:39;12.87;;;11.50;;
4122;SDS011;2075;51.062;6.920;2023-05-14T05:07:24;16.90;;;13.40;;
4122;SDS011;2075;51.062;6.920;2023-05-14T05:10:09;16.47;;;11.70;;
4122;SDS011;2075;51.062;6.920;2023-05-14T05:12:55;13.80;;;11.70;;
4122;SDS011;2075;51.062;6.920;2023-05-14T05:15:41;13.93;;;11.03;;
4122;SDS011;2075;51.062;6.920;2023-05-14T05:18:27;14.73;;;9.43;;
4122;SDS011;2075;51.062;6.920;2023-05-14T05:21:12;11.90;;;9.17;;
4122;SDS011;2075;51.062;6.920;2023-05-14T05:23:57;8.77;;;7.87;;
4122;SDS011;2075;51.062;6.920;2023-05-14T05:26:43;17.17;;;10.27;;
4122;SDS011;2075;51.062;6.920;2023-05-14T05:29:28;9.23;;;8.20;;
4122;SDS011;2075;51.062;6.920;2023-05-14T05:32:15;9.70;;;8.80;;
4122;SDS011;2075;51.062;6.920;2023-05-14T05:35:00;9.23;;;8.33;;
4122;SDS011;2075;51.062;6.920;2023-05-14T05:37:46;8.60;;;7.80;;
4122;SDS011;2075;51.062;6.920;2023-05-14T05:40:31;9.00;;;8.13;;
4122;SDS011;2075;51.062;6.920;2023-05-14T05:43:16;11.20;;;10.20;;
4122;SDS011;2075;51.062;6.920;2023-05-14T05:46:02;22.63;;;17.73;;
4122;SDS011;2075;51.062;6.920;2023-05-14T05:48:49;18.47;;;14.30;;
4122;SDS011;2075;51.062;6.920;2023-05-14T05:51:36;15.17;;;13.50;;
4122;SDS011;2075;51.062;6.920;2023-05-14T05:54:21;19.90;;;13.87;;
4122;SDS011;2075;51.062;6.920;2023-05-14T05:57:07;13.37;;;11.13;;
4122;SDS011;2075;51.062;6.920;2023-05-14T05:59:53;15.47;;;10.50;;
4122;SDS011;2075;51.062;6.920;2023-05-14T06:02:38;20.17;;;11.53;;
4122;SDS011;2075;51.062;6.920;2023-05-14T06:05:25;23.37;;;20.03;;
4122;SDS011;2075;51.062;6.920;2023-05-14T06:08:10;12.50;;;11.20;;
4122;SDS011;2075;51.062;6.920;2023-05-14T06:10:56;12.33;;;11.10;;
4122;SDS011;2075;51.062;6.920;2023-05-14T06:13:41;13.60;;;10.00;;
4122;SDS011;2075;51.062;6.920;2023-05-14T06:16:27;10.43;;;9.30;;
4122;SDS011;2075;51.062;6.920;2023-05-14T06:19:12;11.70;;;9.77;;
4122;SDS011;2075;51.062;6.920;2023-05-14T06:21:59;10.17;;;9.23;;
4122;SDS011;2075;51.062;6.920;2023-05-14T06:24:46;10.33;;;9.30;;
4122;SDS011;2075;51.062;6.920;2023-05-14T06:27:31;10.93;;;9.80;;
4122;SDS011;2075;51.062;6.920;2023-05-14T06:30:17;11.40;;;10.30;;
4122;SDS011;2075;51.062;6.920;2023-05-14T06:33:03;8.87;;;8.10;;
4122;SDS011;2075;51.062;6.920;2023-05-14T06:35:48;11.27;;;9.23;;
4122;SDS011;2075;51.062;6.920;2023-05-14T06:38:35;9.97;;;8.87;;
4122;SDS011;2075;51.062;6.920;2023-05-14T06:41:20;10.93;;;8.07;;
4122;SDS011;2075;51.062;6.920;2023-05-14T06:44:06;8.50;;;7.70;;
4122;SDS011;2075;51.062;6.920;2023-05-14T06:46:51;9.73;;;8.93;;
4122;SDS011;2075;51.062;6.920;2023-05-14T06:49:37;9.57;;;8.67;;
4122;SDS011;2075;51.062;6.920;2023-05-14T06:52:22;9.07;;;8.27;;
4122;SDS011;2075;51.062;6.920;2023-05-14T06:55:09;8.37;;;7.67;;
4122;SDS011;2075;51.062;6.920;2023-05-14T06:57:54;8.43;;;7.83;;
4122;SDS011;2075;51.062;6.920;2023-05-14T07:00:40;7.87;;;7.10;;
4122;SDS011;2075;51.062;6.920;2023-05-14T07:03:25;7.87;;;7.27;;
4122;SDS011;2075;51.062;6.920;2023-05-14T07:06:11;8.17;;;7.47;;
4122;SDS011;2075;51.062;6.920;2023-05-14T07:08:58;12.50;;;11.03;;
4122;SDS011;2075;51.062;6.920;2023-05-14T07:11:46;9.03;;;8.30;;
4122;SDS011;2075;51.062;6.920;2023-05-14T07:14:31;8.70;;;7.90;;
4122;SDS011;2075;51.062;6.920;2023-05-14T07:17:17;9.00;;;8.20;;
4122;SDS011;2075;51.062;6.920;2023-05-14T07:20:02;9.27;;;8.60;;
4122;SDS011;2075;51.062;6.920;2023-05-14T07:22:48;11.27;;;8.33;;
4122;SDS011;2075;51.062;6.920;2023-05-14T07:25:34;9.20;;;8.40;;
4122;SDS011;2075;51.062;6.920;2023-05-14T07:28:21;14.60;;;13.30;;
4122;SDS011;2075;51.062;6.920;2023-05-14T07:31:06;11.43;;;8.33;;
4122;SDS011;2075;51.062;6.920;2023-05-14T07:33:52;8.53;;;7.73;;
4122;SDS011;2075;51.062;6.920;2023-05-14T07:36:38;7.77;;;7.17;;
4122;SDS011;2075;51.062;6.920;2023-05-14T07:39:24;8.20;;;7.57;;
4122;SDS011;2075;51.062;6.920;2023-05-14T07:42:09;10.90;;;8.40;;
4122;SDS011;2075;51.062;6.920;2023-05-14T07:44:56;7.73;;;7.20;;
4122;SDS011;2075;51.062;6.920;2023-05-14T07:47:41;8.77;;;7.30;;
4122;SDS011;2075;51.062;6.920;2023-05-14T07:50:27;8.37;;;7.57;;
4122;SDS011;2075;51.062;6.920;2023-05-14T07:53:12;8.33;;;7.80;;
4122;SDS011;2075;51.062;6.920;2023-05-14T07:55:58;8.40;;;7.47;;
4122;SDS011;2075;51.062;6.920;2023-05-14T07:58:43;8.18;;;7.47;;
4122;SDS011;2075;51.062;6.920;2023-05-14T08:01:30;8.15;;;7.45;;
4122;SDS011;2075;51.062;6.920;2023-05-14T08:04:15;7.60;;;7.10;;
4122;SDS011;2075;51.062;6.920;2023-05-14T08:07:01;7.32;;;6.82;;
4122;SDS011;2075;51.062;6.920;2023-05-14T08:09:46;8.30;;;7.60;;
4122;SDS011;2075;51.062;6.920;2023-05-14T08:12:31;12.82;;;11.63;;
4122;SDS011;2075;51.062;6.920;2023-05-14T08:15:17;8.50;;;7.43;;
4122;SDS011;2075;51.062;6.920;2023-05-14T08:18:04;9.65;;;9.00;;
4122;SDS011;2075;51.062;6.920;2023-05-14T08:20:50;7.75;;;6.97;;
4122;SDS011;2075;51.062;6.920;2023-05-14T08:23:36;8.50;;;7.80;;
4122;SDS011;2075;51.062;6.920;2023-05-14T08:26:21;8.15;;;7.35;;
4122;SDS011;2075;51.062;6.920;2023-05-14T08:29:07;7.90;;;7.07;;
4122;SDS011;2075;51.062;6.920;2023-05-14T08:31:52;7.63;;;6.93;;
4122;SDS011;2075;51.062;6.920;2023-05-14T08:34:39;8.50;;;7.80;;
4122;SDS011;2075;51.062;6.920;2023-05-14T08:37:24;8.23;;;6.20;;
4122;SDS011;2075;51.062;6.920;2023-05-14T08:40:10;7.32;;;6.80;;
4122;SDS011;2075;51.062;6.920;2023-05-14T08:42:56;10.20;;;6.33;;
4122;SDS011;2075;51.062;6.920;2023-05-14T08:45:42;6.53;;;5.97;;
4122;SDS011;2075;51.062;6.920;2023-05-14T08:48:31;6.37;;;5.87;;
4122;SDS011;2075;51.062;6.920;2023-05-14T08:51:18;6.65;;;6.18;;
4122;SDS011;2075;51.062;6.920;2023-05-14T08:54:03;7.88;;;6.43;;
4122;SDS011;2075;51.062;6.920;2023-05-14T08:56:50;9.55;;;8.75;;
4122;SDS011;2075;51.062;6.920;2023-05-14T08:59:36;5.85;;;5.55;;
4122;SDS011;2075;51.062;6.920;2023-05-14T09:02:22;5.93;;;5.43;;
4122;SDS011;2075;51.062;6.920;2023-05-14T09:05:11;7.40;;;6.80;;
4122;SDS011;2075;51.062;6.920;2023-05-14T09:07:59;8.77;;;7.93;;
4122;SDS011;2075;51.062;6.920;2023-05-14T09:10:45;11.20;;;8.33;;
4122;SDS011;2075;51.062;6.920;2023-05-14T09:13:30;10.80;;;9.80;;
4122;SDS011;2075;51.062;6.920;2023-05-14T09:16:16;12.10;;;10.90;;
4122;SDS011;2075;51.062;6.920;2023-05-14T09:19:02;16.00;;;10.17;;
4122;SDS011;2075;51.062;6.920;2023-05-14T09:21:48;11.23;;;8.97;;
4122;SDS011;2075;51.062;6.920;2023-05-14T09:24:35;10.10;;;9.13;;
4122;SDS011;2075;51.062;6.920;2023-05-14T09:27:21;11.10;;;9.90;;
4122;SDS011;2075;51.062;6.920;2023-05-14T09:30:09;13.97;;;10.47;;
4122;SDS011;2075;51.062;6.920;2023-05-14T09:32:56;13.70;;;10.13;;
4122;SDS011;2075;51.062;6.920;2023-05-14T09:35:41;12.80;;;10.70;;
4122;SDS011;2075;51.062;6.920;2023-05-14T09:38:27;12.33;;;11.13;;
4122;SDS011;2075;51.062;6.920;2023-05-14T09:41:15;11.50;;;10.40;;
4122;SDS011;2075;51.062;6.920;2023-05-14T09:44:00;14.53;;;11.13;;
4122;SDS011;2075;51.062;6.920;2023-05-14T09:46:46;13.77;;;11.20;;
4122;SDS011;2075;51.062;6.920;2023-05-14T09:49:31;20.20;;;11.67;;
4122;SDS011;2075;51.062;6.920;2023-05-14T09:52:17;13.73;;;10.87;;
4122;SDS011;2075;51.062;6.920;2023-05-14T09:55:03;12.57;;;10.73;;
4122;SDS011;2075;51.062;6.920;2023-05-14T09:57:50;11.97;;;10.67;;
4122;SDS011;2075;51.062;6.920;2023-05-14T10:00:36;12.00;;;10.53;;
4122;SDS011;2075;51.062;6.920;2023-05-14T10:03:22;14.93;;;11.07;;
4122;SDS011;2075;51.062;6.920;2023-05-14T10:06:09;15.10;;;10.37;;
4122;SDS011;2075;51.062;6.920;2023-05-14T10:08:59;13.80;;;11.90;;
4122;SDS011;2075;51.062;6.920;2023-05-14T10:11:46;11.50;;;10.40;;
4122;SDS011;2075;51.062;6.920;2023-05-14T10:14:39;13.60;;;11.70;;
4122;SDS011;2075;51.062;6.920;2023-05-14T10:17:27;11.30;;;10.20;;
4122;SDS011;2075;51.062;6.920;2023-05-14T10:20:16;11.50;;;10.20;;
4122;SDS011;2075;51.062;6.920;2023-05-14T10:23:02;9.60;;;8.53;;
4122;SDS011;2075;51.062;6.920;2023-05-14T10:25:47;11.30;;;8.10;;
4122;SDS011;2075;51.062;6.920;2023-05-14T10:28:33;10.03;;;8.90;;
4122;SDS011;2075;51.062;6.920;2023-05-14T10:31:22;10.07;;;9.07;;
4122;SDS011;2075;51.062;6.920;2023-05-14T10:34:10;13.57;;;8.03;;
4122;SDS011;2075;51.062;6.920;2023-05-14T10:37:16;10.50;;;7.60;;
4122;SDS011;2075;51.062;6.920;2023-05-14T10:40:04;8.80;;;7.90;;
4122;SDS011;2075;51.062;6.920;2023-05-14T10:42:51;8.10;;;7.30;;
4122;SDS011;2075;51.062;6.920;2023-05-14T10:45:38;9.57;;;8.67;;
4122;SDS011;2075;51.062;6.920;2023-05-14T10:48:25;10.20;;;7.37;;
4122;SDS011;2075;51.062;6.920;2023-05-14T10:51:11;12.23;;;8.00;;
4122;SDS011;2075;51.062;6.920;2023-05-14T10:53:57;8.40;;;7.60;;
4122;SDS011;2075;51.062;6.920;2023-05-14T10:56:45;7.90;;;7.30;;
4122;SDS011;2075;51.062;6.920;2023-05-14T10:59:30;8.13;;;7.40;;
4122;SDS011;2075;51.062;6.920;2023-05-14T11:02:19;11.33;;;8.43;;
4122;SDS011;2075;51.062;6.920;2023-05-14T11:05:08;11.27;;;10.10;;
4122;SDS011;2075;51.062;6.920;2023-05-14T11:07:56;11.90;;;10.03;;
4122;SDS011;2075;51.062;6.920;2023-05-14T11:10:42;10.83;;;9.83;;
4122;SDS011;2075;51.062;6.920;2023-05-14T11:13:29;12.60;;;10.30;;
4122;SDS011;2075;51.062;6.920;2023-05-14T11:16:17;15.50;;;9.87;;
4122;SDS011;2075;51.062;6.920;2023-05-14T11:19:07;10.90;;;9.80;;
4122;SDS011;2075;51.062;6.920;2023-05-14T11:21:54;10.77;;;8.70;;
4122;SDS011;2075;51.062;6.920;2023-05-14T11:24:40;10.60;;;8.97;;
4122;SDS011;2075;51.062;6.920;2023-05-14T11:27:26;10.03;;;8.50;;
4122;SDS011;2075;51.062;6.920;2023-05-14T11:30:12;10.37;;;9.23;;
4122;SDS011;2075;51.062;6.920;2023-05-14T11:32:58;12.00;;;7.80;;
4122;SDS011;2075;51.062;6.920;2023-05-14T11:35:44;9.17;;;8.23;;
4122;SDS011;2075;51.062;6.920;2023-05-14T11:38:31;13.67;;;8.33;;
4122;SDS011;2075;51.062;6.920;2023-05-14T11:41:17;12.63;;;9.27;;
4122;SDS011;2075;51.062;6.920;2023-05-14T11:44:04;16.37;;;7.80;;
4122;SDS011;2075;51.062;6.920;2023-05-14T11:46:53;8.33;;;7.50;;
4122;SDS011;2075;51.062;6.920;2023-05-14T11:49:39;7.43;;;6.57;;
4122;SDS011;2075;51.062;6.920;2023-05-14T11:52:24;19.67;;;8.00;;
4122;SDS011;2075;51.062;6.920;2023-05-14T11:55:11;10.00;;;6.50;;
4122;SDS011;2075;51.062;6.920;2023-05-14T11:57:57;12.93;;;6.00;;
4122;SDS011;2075;51.062;6.920;2023-05-14T12:00:43;5.70;;;5.30;;
4122;SDS011;2075;51.062;6.920;2023-05-14T12:03:28;10.03;;;6.20;;
4122;SDS011;2075;51.062;6.920;2023-05-14T12:06:14;6.27;;;5.67;;
4122;SDS011;2075;51.062;6.920;2023-05-14T12:08:59;6.10;;;4.93;;
4122;SDS011;2075;51.062;6.920;2023-05-14T12:11:48;5.23;;;4.63;;
4122;SDS011;2075;51.062;6.920;2023-05-14T12:14:35;4.53;;;3.50;;
4122;SDS011;2075;51.062;6.920;2023-05-14T12:17:21;3.70;;;3.40;;
4122;SDS011;2075;51.062;6.920;2023-05-14T12:20:07;5.77;;;3.30;;
4122;SDS011;2075;51.062;6.920;2023-05-14T12:22:54;6.60;;;3.40;;
4122;SDS011;2075;51.062;6.920;2023-05-14T12:25:48;3.77;;;3.50;;
4122;SDS011;2075;51.062;6.920;2023-05-14T12:28:37;3.70;;;3.40;;
4122;SDS011;2075;51.062;6.920;2023-05-14T12:31:28;4.17;;;3.87;;
4122;SDS011;2075;51.062;6.920;2023-05-14T12:34:15;6.80;;;3.60;;
4122;SDS011;2075;51.062;6.920;2023-05-14T12:37:00;4.63;;;4.30;;
4122;SDS011;2075;51.062;6.920;2023-05-14T12:39:47;7.17;;;4.40;;
4122;SDS011;2075;51.062;6.920;2023-05-14T12:42:33;5.00;;;3.40;;
4122;SDS011;2075;51.062;6.920;2023-05-14T12:45:20;5.93;;;4.30;;
4122;SDS011;2075;51.062;6.920;2023-05-14T12:48:05;3.80;;;3.53;;
4122;SDS011;2075;51.062;6.920;2023-05-14T12:50:50;6.50;;;3.70;;
4122;SDS011;2075;51.062;6.920;2023-05-14T12:53:36;3.83;;;3.63;;
4122;SDS011;2075;51.062;6.920;2023-05-14T12:56:21;5.23;;;3.70;;
4122;SDS011;2075;51.062;6.920;2023-05-14T12:59:10;4.73;;;3.67;;
4122;SDS011;2075;51.062;6.920;2023-05-14T13:01:57;3.97;;;3.60;;
4122;SDS011;2075;51.062;6.920;2023-05-14T13:04:43;3.93;;;3.63;;
4122;SDS011;2075;51.062;6.920;2023-05-14T13:07:29;5.73;;;3.60;;
4122;SDS011;2075;51.062;6.920;2023-05-14T13:10:15;12.77;;;3.60;;
4122;SDS011;2075;51.062;6.920;2023-05-14T13:13:01;4.30;;;3.27;;
4122;SDS011;2075;51.062;6.920;2023-05-14T13:15:46;3.97;;;3.37;;
4122;SDS011;2075;51.062;6.920;2023-05-14T13:18:33;4.63;;;4.13;;
4122;SDS011;2075;51.062;6.920;2023-05-14T13:21:18;4.20;;;3.87;;
4122;SDS011;2075;51.062;6.920;2023-05-14T13:24:04;4.77;;;3.30;;
4122;SDS011;2075;51.062;6.920;2023-05-14T13:26:49;3.77;;;3.50;;
4122;SDS011;2075;51.062;6.920;2023-05-14T13:29:35;4.10;;;3.70;;
4122;SDS011;2075;51.062;6.920;2023-05-14T13:32:20;3.58;;;3.35;;
4122;SDS011;2075;51.062;6.920;2023-05-14T13:35:07;4.00;;;3.07;;
4122;SDS011;2075;51.062;6.920;2023-05-14T13:37:53;5.00;;;3.40;;
4122;SDS011;2075;51.062;6.920;2023-05-14T13:40:38;3.50;;;3.20;;
4122;SDS011;2075;51.062;6.920;2023-05-14T13:43:24;4.10;;;3.80;;
4122;SDS011;2075;51.062;6.920;2023-05-14T13:46:09;4.50;;;4.00;;
4122;SDS011;2075;51.062;6.920;2023-05-14T13:48:55;6.33;;;4.00;;
4122;SDS011;2075;51.062;6.920;2023-05-14T13:51:41;3.83;;;3.63;;
4122;SDS011;2075;51.062;6.920;2023-05-14T13:54:27;3.70;;;3.47;;
4122;SDS011;2075;51.062;6.920;2023-05-14T13:57:12;3.87;;;3.57;;
4122;SDS011;2075;51.062;6.920;2023-05-14T13:59:58;3.60;;;3.40;;
4122;SDS011;2075;51.062;6.920;2023-05-14T14:02:43;3.80;;;3.60;;
4122;SDS011;2075;51.062;6.920;2023-05-14T14:05:29;3.80;;;3.50;;
4122;SDS011;2075;51.062;6.920;2023-05-14T14:08:15;3.77;;;3.57;;
4122;SDS011;2075;51.062;6.920;2023-05-14T14:11:01;3.70;;;3.40;;
4122;SDS011;2075;51.062;6.920;2023-05-14T14:13:46;4.20;;;3.80;;
4122;SDS011;2075;51.062;6.920;2023-05-14T14:16:31;3.60;;;3.40;;
4122;SDS011;2075;51.062;6.920;2023-05-14T14:19:17;8.18;;;3.70;;
4122;SDS011;2075;51.062;6.920;2023-05-14T14:22:02;3.50;;;3.30;;
4122;SDS011;2075;51.062;6.920;2023-05-14T14:24:50;5.30;;;3.10;;
4122;SDS011;2075;51.062;6.920;2023-05-14T14:27:35;4.27;;;3.87;;
4122;SDS011;2075;51.062;6.920;2023-05-14T14:30:21;3.83;;;3.53;;
4122;SDS011;2075;51.062;6.920;2023-05-14T14:33:07;6.73;;;3.77;;
4122;SDS011;2075;51.062;6.920;2023-05-14T14:35:52;3.70;;;3.43;;
4122;SDS011;2075;51.062;6.920;2023-05-14T14:38:37;4.20;;;3.87;;
4122;SDS011;2075;51.062;6.920;2023-05-14T14:41:24;3.20;;;3.10;;
4122;SDS011;2075;51.062;6.920;2023-05-14T14:44:10;3.43;;;3.23;;
4122;SDS011;2075;51.062;6.920;2023-05-14T14:46:55;3.17;;;2.97;;
4122;SDS011;2075;51.062;6.920;2023-05-14T14:49:41;3.40;;;3.10;;
4122;SDS011;2075;51.062;6.920;2023-05-14T14:52:27;3.70;;;3.40;;
4122;SDS011;2075;51.062;6.920;2023-05-14T14:55:12;3.50;;;3.20;;
4122;SDS011;2075;51.062;6.920;2023-05-14T14:57:59;4.00;;;3.40;;
4122;SDS011;2075;51.062;6.920;2023-05-14T15:00:45;6.53;;;3.60;;
4122;SDS011;2075;51.062;6.920;2023-05-14T15:03:31;3.37;;;3.03;;
4122;SDS011;2075;51.062;6.920;2023-05-14T15:06:17;3.70;;;3.50;;
4122;SDS011;2075;51.062;6.920;2023-05-14T15:09:02;3.80;;;3.50;;
4122;SDS011;2075;51.062;6.920;2023-05-14T15:11:47;4.50;;;3.40;;
4122;SDS011;2075;51.062;6.920;2023-05-14T15:14:34;4.10;;;3.30;;
4122;SDS011;2075;51.062;6.920;2023-05-14T15:17:20;4.03;;;3.53;;
4122;SDS011;2075;51.062;6.920;2023-05-14T15:20:06;3.50;;;3.30;;
4122;SDS011;2075;51.062;6.920;2023-05-14T15:22:53;3.87;;;3.40;;
4122;SDS011;2075;51.062;6.920;2023-05-14T15:25:38;3.77;;;3.57;;
4122;SDS011;2075;51.062;6.920;2023-05-14T15:28:24;4.33;;;3.70;;
4122;SDS011;2075;51.062;6.920;2023-05-14T15:31:11;3.73;;;3.53;;
4122;SDS011;2075;51.062;6.920;2023-05-14T15:33:56;6.40;;;3.33;;
4122;SDS011;2075;51.062;6.920;2023-05-14T15:36:41;4.40;;;3.20;;
4122;SDS011;2075;51.062;6.920;2023-05-14T15:39:27;6.43;;;3.10;;
4122;SDS011;2075;51.062;6.920;2023-05-14T15:42:14;3.37;;;3.17;;
4122;SDS011;2075;51.062;6.920;2023-05-14T15:44:59;3.43;;;3.23;;
4122;SDS011;2075;51.062;6.920;2023-05-14T15:47:46;4.03;;;3.20;;
4122;SDS011;2075;51.062;6.920;2023-05-14T15:50:32;4.60;;;3.60;;
4122;SDS011;2075;51.062;6.920;2023-05-14T15:53:17;3.60;;;3.40;;
4122;SDS011;2075;51.062;6.920;2023-05-14T15:56:02;3.40;;;3.23;;
4122;SDS011;2075;51.062;6.920;2023-05-14T15:58:48;2.90;;;2.80;;
4122;SDS011;2075;51.062;6.920;2023-05-14T16:01:34;3.10;;;2.90;;
4122;SDS011;2075;51.062;6.920;2023-05-14T16:04:21;2.80;;;2.70;;
4122;SDS011;2075;51.062;6.920;2023-05-14T16:07:07;3.70;;;3.40;;
4122;SDS011;2075;51.062;6.920;2023-05-14T16:09:54;3.20;;;2.90;;
4122;SDS011;2075;51.062;6.920;2023-05-14T16:12:39;3.83;;;3.63;;
4122;SDS011;2075;51.062;6.920;2023-05-14T16:15:25;3.30;;;3.00;;
4122;SDS011;2075;51.062;6.920;2023-05-14T16:18:10;2.87;;;2.60;;
4122;SDS011;2075;51.062;6.920;2023-05-14T16:20:57;3.33;;;2.73;;
4122;SDS011;2075;51.062;6.920;2023-05-14T16:23:42;2.80;;;2.70;;
4122;SDS011;2075;51.062;6.920;2023-05-14T16:26:28;3.43;;;2.77;;
4122;SDS011;2075;51.062;6.920;2023-05-14T16:29:14;3.40;;;2.77;;
4122;SDS011;2075;51.062;6.920;2023-05-14T16:31:59;2.80;;;2.60;;
4122;SDS011;2075;51.062;6.920;2023-05-14T16:34:45;4.63;;;2.93;;
4122;SDS011;2075;51.062;6.920;2023-05-14T16:37:34;4.77;;;2.77;;
4122;SDS011;2075;51.062;6.920;2023-05-14T16:40:19;3.10;;;2.80;;
4122;SDS011;2075;51.062;6.920;2023-05-14T16:43:05;3.93;;;3.00;;
4122;SDS011;2075;51.062;6.920;2023-05-14T16:45:51;3.10;;;2.80;;
4122;SDS011;2075;51.062;6.920;2023-05-14T16:48:36;3.10;;;2.90;;
4122;SDS011;2075;51.062;6.920;2023-05-14T16:51:22;3.00;;;2.90;;
4122;SDS011;2075;51.062;6.920;2023-05-14T16:54:09;3.20;;;3.00;;
4122;SDS011;2075;51.062;6.920;2023-05-14T16:56:54;3.40;;;3.20;;
4122;SDS011;2075;51.062;6.920;2023-05-14T16:59:39;2.90;;;2.70;;